sensor_id;sensor_type;location;lat;lon;timestamp;P1;durP1;ratioP1;P2;durP2;ratioP2
69981;SDS011;57319;56.274;43.980;2023-03-14T00:00:55;2.92;;;2.72;;
69981;SDS011;57319;56.274;43.980;2023-03-14T00:03:20;13.93;;;2.83;;
69981;SDS011;57319;56.274;43.980;2023-03-14T00:05:46;2.20;;;2.10;;
69981;SDS011;57319;56.274;43.980;2023-03-14T00:08:12;2.25;;;2.15;;
69981;SDS011;57319;56.274;43.980;2023-03-14T00:10:37;2.50;;;2.35;;
69981;SDS011;57319;56.274;43.980;2023-03-14T00:13:03;2.72;;;2.53;;
69981;SDS011;57319;56.274;43.980;2023-03-14T00:15:29;3.30;;;2.10;;
69981;SDS011;57319;56.274;43.980;2023-03-14T00:17:54;2.40;;;2.30;;
69981;SDS011;57319;56.274;43.980;2023-03-14T00:20:20;2.22;;;2.13;;
69981;SDS011;57319;56.274;43.980;2023-03-14T00:22:46;2.92;;;2.67;;
69981;SDS011;57319;56.274;43.980;2023-03-14T00:25:12;2.42;;;2.33;;
69981;SDS011;57319;56.274;43.980;2023-03-14T00:27:38;2.25;;;2.15;;
69981;SDS011;57319;56.274;43.980;2023-03-14T00:30:04;2.53;;;2.25;;
69981;SDS011;57319;56.274;43.980;2023-03-14T00:32:32;2.15;;;2.13;;
69981;SDS011;57319;56.274;43.980;2023-03-14T00:34:58;2.20;;;2.13;;
69981;SDS011;57319;56.274;43.980;2023-03-14T00:37:26;2.35;;;2.25;;
69981;SDS011;57319;56.274;43.980;2023-03-14T00:39:51;6.20;;;2.35;;
69981;SDS011;57319;56.274;43.980;2023-03-14T00:42:17;2.17;;;2.08;;
69981;SDS011;57319;56.274;43.980;2023-03-14T00:44:43;2.40;;;2.30;;
69981;SDS011;57319;56.274;43.980;2023-03-14T00:47:08;2.70;;;2.50;;
69981;SDS011;57319;56.274;43.980;2023-03-14T00:49:34;2.13;;;2.03;;
69981;SDS011;57319;56.274;43.980;2023-03-14T00:51:59;2.30;;;2.20;;
69981;SDS011;57319;56.274;43.980;2023-03-14T00:54:25;6.03;;;2.33;;
69981;SDS011;57319;56.274;43.980;2023-03-14T00:56:51;5.13;;;2.35;;
69981;SDS011;57319;56.274;43.980;2023-03-14T00:59:16;2.25;;;2.10;;
69981;SDS011;57319;56.274;43.980;2023-03-14T01:01:42;2.08;;;1.95;;
69981;SDS011;57319;56.274;43.980;2023-03-14T01:04:08;5.20;;;2.00;;
69981;SDS011;57319;56.274;43.980;2023-03-14T01:06:34;1.92;;;1.67;;
69981;SDS011;57319;56.274;43.980;2023-03-14T01:09:00;6.28;;;2.55;;
69981;SDS011;57319;56.274;43.980;2023-03-14T01:11:27;2.17;;;2.08;;
69981;SDS011;57319;56.274;43.980;2023-03-14T01:13:54;2.38;;;2.10;;
69981;SDS011;57319;56.274;43.980;2023-03-14T01:16:21;1.92;;;1.88;;
69981;SDS011;57319;56.274;43.980;2023-03-14T01:18:48;2.20;;;2.13;;
69981;SDS011;57319;56.274;43.980;2023-03-14T01:21:15;2.00;;;1.92;;
69981;SDS011;57319;56.274;43.980;2023-03-14T01:23:41;6.00;;;2.15;;
69981;SDS011;57319;56.274;43.980;2023-03-14T01:26:11;3.50;;;2.00;;
69981;SDS011;57319;56.274;43.980;2023-03-14T01:28:38;2.50;;;2.35;;
69981;SDS011;57319;56.274;43.980;2023-03-14T01:31:05;3.10;;;2.50;;
69981;SDS011;57319;56.274;43.980;2023-03-14T01:33:32;4.00;;;2.60;;
69981;SDS011;57319;56.274;43.980;2023-03-14T01:35:58;2.50;;;2.30;;
69981;SDS011;57319;56.274;43.980;2023-03-14T01:38:24;2.13;;;2.03;;
69981;SDS011;57319;56.274;43.980;2023-03-14T01:40:50;6.43;;;2.50;;
69981;SDS011;57319;56.274;43.980;2023-03-14T01:43:16;2.08;;;1.98;;
69981;SDS011;57319;56.274;43.980;2023-03-14T01:48:32;2.50;;;2.40;;
69981;SDS011;57319;56.274;43.980;2023-03-14T01:51:04;2.50;;;2.40;;
69981;SDS011;57319;56.274;43.980;2023-03-14T01:53:34;2.30;;;2.10;;
69981;SDS011;57319;56.274;43.980;2023-03-14T01:56:01;2.10;;;2.00;;
69981;SDS011;57319;56.274;43.980;2023-03-14T01:58:28;2.58;;;2.38;;
69981;SDS011;57319;56.274;43.980;2023-03-14T02:00:59;2.97;;;2.65;;
69981;SDS011;57319;56.274;43.980;2023-03-14T02:03:27;1.77;;;1.73;;
69981;SDS011;57319;56.274;43.980;2023-03-14T02:05:56;2.47;;;2.25;;
69981;SDS011;57319;56.274;43.980;2023-03-14T02:08:29;2.55;;;2.40;;
69981;SDS011;57319;56.274;43.980;2023-03-14T02:10:56;2.65;;;2.45;;
69981;SDS011;57319;56.274;43.980;2023-03-14T02:13:22;2.67;;;2.45;;
69981;SDS011;57319;56.274;43.980;2023-03-14T02:15:48;5.82;;;2.30;;
69981;SDS011;57319;56.274;43.980;2023-03-14T02:18:15;3.97;;;2.80;;
69981;SDS011;57319;56.274;43.980;2023-03-14T02:20:45;3.00;;;2.83;;
69981;SDS011;57319;56.274;43.980;2023-03-14T02:23:15;3.70;;;2.20;;
69981;SDS011;57319;56.274;43.980;2023-03-14T02:25:53;3.35;;;2.75;;
69981;SDS011;57319;56.274;43.980;2023-03-14T02:28:28;5.03;;;2.35;;
69981;SDS011;57319;56.274;43.980;2023-03-14T02:30:54;7.85;;;2.72;;
69981;SDS011;57319;56.274;43.980;2023-03-14T02:33:20;3.05;;;2.65;;
69981;SDS011;57319;56.274;43.980;2023-03-14T02:35:50;2.85;;;2.65;;
69981;SDS011;57319;56.274;43.980;2023-03-14T02:38:39;6.78;;;2.72;;
69981;SDS011;57319;56.274;43.980;2023-03-14T02:41:28;8.55;;;2.60;;
69981;SDS011;57319;56.274;43.980;2023-03-14T02:43:54;2.97;;;2.30;;
69981;SDS011;57319;56.274;43.980;2023-03-14T02:46:20;2.60;;;2.40;;
69981;SDS011;57319;56.274;43.980;2023-03-14T02:48:57;4.40;;;2.22;;
69981;SDS011;57319;56.274;43.980;2023-03-14T02:51:26;2.97;;;2.78;;
69981;SDS011;57319;56.274;43.980;2023-03-14T02:53:53;2.65;;;2.47;;
69981;SDS011;57319;56.274;43.980;2023-03-14T02:56:19;2.90;;;2.70;;
69981;SDS011;57319;56.274;43.980;2023-03-14T02:58:45;2.28;;;2.17;;
69981;SDS011;57319;56.274;43.980;2023-03-14T03:01:10;3.97;;;3.13;;
69981;SDS011;57319;56.274;43.980;2023-03-14T03:03:36;2.65;;;2.50;;
69981;SDS011;57319;56.274;43.980;2023-03-14T03:06:02;5.25;;;2.30;;
69981;SDS011;57319;56.274;43.980;2023-03-14T03:08:28;3.33;;;3.03;;
69981;SDS011;57319;56.274;43.980;2023-03-14T03:10:54;2.65;;;2.45;;
69981;SDS011;57319;56.274;43.980;2023-03-14T03:13:20;2.95;;;2.75;;
69981;SDS011;57319;56.274;43.980;2023-03-14T03:15:46;2.70;;;2.50;;
69981;SDS011;57319;56.274;43.980;2023-03-14T03:18:12;6.53;;;3.10;;
69981;SDS011;57319;56.274;43.980;2023-03-14T03:20:37;2.63;;;2.40;;
69981;SDS011;57319;56.274;43.980;2023-03-14T03:23:03;10.38;;;2.78;;
69981;SDS011;57319;56.274;43.980;2023-03-14T03:25:29;2.70;;;2.53;;
69981;SDS011;57319;56.274;43.980;2023-03-14T03:27:56;2.80;;;2.60;;
69981;SDS011;57319;56.274;43.980;2023-03-14T03:30:22;6.40;;;3.20;;
69981;SDS011;57319;56.274;43.980;2023-03-14T03:32:47;4.65;;;3.00;;
69981;SDS011;57319;56.274;43.980;2023-03-14T03:35:13;6.13;;;3.15;;
69981;SDS011;57319;56.274;43.980;2023-03-14T03:37:39;3.50;;;3.20;;
69981;SDS011;57319;56.274;43.980;2023-03-14T03:40:05;3.33;;;2.63;;
69981;SDS011;57319;56.274;43.980;2023-03-14T03:42:31;5.65;;;2.60;;
69981;SDS011;57319;56.274;43.980;2023-03-14T03:44:59;2.60;;;2.50;;
69981;SDS011;57319;56.274;43.980;2023-03-14T03:47:25;2.70;;;2.45;;
69981;SDS011;57319;56.274;43.980;2023-03-14T03:49:51;8.13;;;3.03;;
69981;SDS011;57319;56.274;43.980;2023-03-14T03:52:16;3.50;;;2.85;;
69981;SDS011;57319;56.274;43.980;2023-03-14T03:54:42;6.50;;;3.10;;
69981;SDS011;57319;56.274;43.980;2023-03-14T03:57:08;4.35;;;2.90;;
69981;SDS011;57319;56.274;43.980;2023-03-14T03:59:34;4.65;;;3.30;;
69981;SDS011;57319;56.274;43.980;2023-03-14T04:01:59;5.95;;;3.53;;
69981;SDS011;57319;56.274;43.980;2023-03-14T04:04:25;3.08;;;2.75;;
69981;SDS011;57319;56.274;43.980;2023-03-14T04:06:50;4.25;;;3.10;;
69981;SDS011;57319;56.274;43.980;2023-03-14T04:09:16;8.00;;;3.10;;
69981;SDS011;57319;56.274;43.980;2023-03-14T04:11:42;6.88;;;3.35;;
69981;SDS011;57319;56.274;43.980;2023-03-14T04:14:07;4.20;;;3.83;;
69981;SDS011;57319;56.274;43.980;2023-03-14T04:16:33;6.43;;;3.75;;
69981;SDS011;57319;56.274;43.980;2023-03-14T04:19:00;4.00;;;3.63;;
69981;SDS011;57319;56.274;43.980;2023-03-14T04:21:26;4.22;;;3.78;;
69981;SDS011;57319;56.274;43.980;2023-03-14T04:23:52;3.90;;;3.42;;
69981;SDS011;57319;56.274;43.980;2023-03-14T04:26:17;4.95;;;3.97;;
69981;SDS011;57319;56.274;43.980;2023-03-14T04:28:43;8.73;;;3.78;;
69981;SDS011;57319;56.274;43.980;2023-03-14T04:31:10;8.98;;;4.20;;
69981;SDS011;57319;56.274;43.980;2023-03-14T04:33:37;10.38;;;3.80;;
69981;SDS011;57319;56.274;43.980;2023-03-14T04:36:03;10.70;;;3.58;;
69981;SDS011;57319;56.274;43.980;2023-03-14T04:38:30;10.40;;;3.97;;
69981;SDS011;57319;56.274;43.980;2023-03-14T04:40:56;13.60;;;4.82;;
69981;SDS011;57319;56.274;43.980;2023-03-14T04:43:21;14.40;;;4.07;;
69981;SDS011;57319;56.274;43.980;2023-03-14T04:45:47;9.90;;;3.97;;
69981;SDS011;57319;56.274;43.980;2023-03-14T04:48:13;8.23;;;3.92;;
69981;SDS011;57319;56.274;43.980;2023-03-14T04:50:39;3.75;;;3.45;;
69981;SDS011;57319;56.274;43.980;2023-03-14T04:53:05;5.97;;;4.03;;
69981;SDS011;57319;56.274;43.980;2023-03-14T04:55:31;4.15;;;3.75;;
69981;SDS011;57319;56.274;43.980;2023-03-14T04:57:57;4.00;;;3.63;;
69981;SDS011;57319;56.274;43.980;2023-03-14T05:00:24;5.07;;;3.80;;
69981;SDS011;57319;56.274;43.980;2023-03-14T05:02:50;5.53;;;4.05;;
69981;SDS011;57319;56.274;43.980;2023-03-14T05:05:15;7.10;;;3.78;;
69981;SDS011;57319;56.274;43.980;2023-03-14T05:07:41;4.30;;;3.63;;
69981;SDS011;57319;56.274;43.980;2023-03-14T05:10:07;6.38;;;4.13;;
69981;SDS011;57319;56.274;43.980;2023-03-14T05:12:33;6.85;;;4.05;;
69981;SDS011;57319;56.274;43.980;2023-03-14T05:14:59;6.88;;;3.53;;
69981;SDS011;57319;56.274;43.980;2023-03-14T05:17:25;8.45;;;3.60;;
69981;SDS011;57319;56.274;43.980;2023-03-14T05:19:50;7.40;;;3.03;;
69981;SDS011;57319;56.274;43.980;2023-03-14T05:22:16;3.65;;;3.00;;
69981;SDS011;57319;56.274;43.980;2023-03-14T05:24:42;3.70;;;3.30;;
69981;SDS011;57319;56.274;43.980;2023-03-14T05:27:08;2.67;;;2.55;;
69981;SDS011;57319;56.274;43.980;2023-03-14T05:29:33;9.02;;;3.30;;
69981;SDS011;57319;56.274;43.980;2023-03-14T05:31:59;4.63;;;3.17;;
69981;SDS011;57319;56.274;43.980;2023-03-14T05:34:25;2.88;;;2.67;;
69981;SDS011;57319;56.274;43.980;2023-03-14T05:36:51;8.52;;;2.70;;
69981;SDS011;57319;56.274;43.980;2023-03-14T05:39:16;6.07;;;3.10;;
69981;SDS011;57319;56.274;43.980;2023-03-14T05:41:42;3.10;;;2.67;;
69981;SDS011;57319;56.274;43.980;2023-03-14T05:44:07;4.20;;;2.40;;
69981;SDS011;57319;56.274;43.980;2023-03-14T05:46:33;3.35;;;2.40;;
69981;SDS011;57319;56.274;43.980;2023-03-14T05:48:59;2.55;;;2.35;;
69981;SDS011;57319;56.274;43.980;2023-03-14T05:51:25;5.28;;;2.60;;
69981;SDS011;57319;56.274;43.980;2023-03-14T05:53:51;9.82;;;2.63;;
69981;SDS011;57319;56.274;43.980;2023-03-14T05:56:16;11.52;;;2.50;;
69981;SDS011;57319;56.274;43.980;2023-03-14T05:58:42;5.25;;;2.33;;
69981;SDS011;57319;56.274;43.980;2023-03-14T06:01:08;5.35;;;2.40;;
69981;SDS011;57319;56.274;43.980;2023-03-14T06:03:34;5.22;;;2.30;;
69981;SDS011;57319;56.274;43.980;2023-03-14T06:06:00;2.65;;;2.47;;
69981;SDS011;57319;56.274;43.980;2023-03-14T06:08:26;7.00;;;2.08;;
69981;SDS011;57319;56.274;43.980;2023-03-14T06:10:53;9.00;;;1.92;;
69981;SDS011;57319;56.274;43.980;2023-03-14T06:13:19;7.65;;;2.15;;
69981;SDS011;57319;56.274;43.980;2023-03-14T06:15:45;1.48;;;1.48;;
69981;SDS011;57319;56.274;43.980;2023-03-14T06:18:10;3.67;;;3.00;;
69981;SDS011;57319;56.274;43.980;2023-03-14T06:20:37;1.65;;;1.58;;
69981;SDS011;57319;56.274;43.980;2023-03-14T06:23:06;2.17;;;2.00;;
69981;SDS011;57319;56.274;43.980;2023-03-14T06:25:33;2.38;;;1.75;;
69981;SDS011;57319;56.274;43.980;2023-03-14T06:27:59;10.10;;;1.70;;
69981;SDS011;57319;56.274;43.980;2023-03-14T06:30:26;2.72;;;1.85;;
69981;SDS011;57319;56.274;43.980;2023-03-14T06:32:52;8.00;;;1.75;;
69981;SDS011;57319;56.274;43.980;2023-03-14T06:35:18;2.70;;;1.67;;
69981;SDS011;57319;56.274;43.980;2023-03-14T06:37:44;3.10;;;1.70;;
69981;SDS011;57319;56.274;43.980;2023-03-14T06:40:10;1.58;;;1.30;;
69981;SDS011;57319;56.274;43.980;2023-03-14T06:42:42;1.40;;;1.40;;
69981;SDS011;57319;56.274;43.980;2023-03-14T06:45:08;2.85;;;1.77;;
69981;SDS011;57319;56.274;43.980;2023-03-14T06:47:34;2.22;;;1.58;;
69981;SDS011;57319;56.274;43.980;2023-03-14T06:50:00;7.13;;;1.70;;
69981;SDS011;57319;56.274;43.980;2023-03-14T06:52:28;2.33;;;1.63;;
69981;SDS011;57319;56.274;43.980;2023-03-14T06:54:53;3.88;;;1.55;;
69981;SDS011;57319;56.274;43.980;2023-03-14T06:57:19;1.48;;;1.38;;
69981;SDS011;57319;56.274;43.980;2023-03-14T06:59:44;2.50;;;1.67;;
69981;SDS011;57319;56.274;43.980;2023-03-14T07:02:10;1.58;;;1.52;;
69981;SDS011;57319;56.274;43.980;2023-03-14T07:04:37;3.13;;;1.67;;
69981;SDS011;57319;56.274;43.980;2023-03-14T07:07:04;1.65;;;1.50;;
69981;SDS011;57319;56.274;43.980;2023-03-14T07:09:36;5.88;;;1.60;;
69981;SDS011;57319;56.274;43.980;2023-03-14T07:12:02;3.28;;;2.03;;
69981;SDS011;57319;56.274;43.980;2023-03-14T07:14:29;2.33;;;1.75;;
69981;SDS011;57319;56.274;43.980;2023-03-14T07:17:03;1.45;;;1.35;;
69981;SDS011;57319;56.274;43.980;2023-03-14T07:19:33;6.15;;;1.55;;
69981;SDS011;57319;56.274;43.980;2023-03-14T07:21:59;1.67;;;1.58;;
69981;SDS011;57319;56.274;43.980;2023-03-14T07:24:26;10.52;;;1.80;;
69981;SDS011;57319;56.274;43.980;2023-03-14T07:26:52;3.20;;;1.50;;
69981;SDS011;57319;56.274;43.980;2023-03-14T07:29:18;10.25;;;1.80;;
69981;SDS011;57319;56.274;43.980;2023-03-14T07:31:44;4.20;;;1.20;;
69981;SDS011;57319;56.274;43.980;2023-03-14T07:34:09;1.42;;;1.42;;
69981;SDS011;57319;56.274;43.980;2023-03-14T07:36:35;1.63;;;1.30;;
69981;SDS011;57319;56.274;43.980;2023-03-14T07:39:01;4.20;;;1.50;;
69981;SDS011;57319;56.274;43.980;2023-03-14T07:41:30;1.38;;;1.27;;
69981;SDS011;57319;56.274;43.980;2023-03-14T07:43:56;3.70;;;1.52;;
69981;SDS011;57319;56.274;43.980;2023-03-14T07:46:22;4.43;;;1.48;;
69981;SDS011;57319;56.274;43.980;2023-03-14T07:48:49;5.60;;;1.50;;
69981;SDS011;57319;56.274;43.980;2023-03-14T07:51:15;5.80;;;2.00;;
69981;SDS011;57319;56.274;43.980;2023-03-14T07:56:39;1.50;;;1.40;;
69981;SDS011;57319;56.274;43.980;2023-03-14T07:59:04;3.45;;;1.30;;
69981;SDS011;57319;56.274;43.980;2023-03-14T08:01:30;1.27;;;1.13;;
69981;SDS011;57319;56.274;43.980;2023-03-14T08:03:55;4.57;;;1.30;;
69981;SDS011;57319;56.274;43.980;2023-03-14T08:06:21;2.85;;;1.67;;
69981;SDS011;57319;56.274;43.980;2023-03-14T08:08:47;1.55;;;1.30;;
69981;SDS011;57319;56.274;43.980;2023-03-14T08:11:12;2.40;;;1.45;;
69981;SDS011;57319;56.274;43.980;2023-03-14T08:13:38;1.50;;;1.17;;
69981;SDS011;57319;56.274;43.980;2023-03-14T08:16:05;1.25;;;1.25;;
69981;SDS011;57319;56.274;43.980;2023-03-14T08:18:31;1.55;;;1.23;;
69981;SDS011;57319;56.274;43.980;2023-03-14T08:20:56;1.25;;;1.02;;
69981;SDS011;57319;56.274;43.980;2023-03-14T08:23:23;1.52;;;1.20;;
69981;SDS011;57319;56.274;43.980;2023-03-14T08:25:49;1.23;;;1.13;;
69981;SDS011;57319;56.274;43.980;2023-03-14T08:28:16;1.88;;;1.20;;
69981;SDS011;57319;56.274;43.980;2023-03-14T08:30:42;5.72;;;1.20;;
69981;SDS011;57319;56.274;43.980;2023-03-14T08:33:08;1.20;;;1.20;;
69981;SDS011;57319;56.274;43.980;2023-03-14T08:35:34;1.15;;;1.10;;
69981;SDS011;57319;56.274;43.980;2023-03-14T08:37:59;1.00;;;1.00;;
69981;SDS011;57319;56.274;43.980;2023-03-14T08:40:26;2.20;;;0.98;;
69981;SDS011;57319;56.274;43.980;2023-03-14T08:42:52;0.88;;;0.88;;
69981;SDS011;57319;56.274;43.980;2023-03-14T08:45:17;3.67;;;1.35;;
69981;SDS011;57319;56.274;43.980;2023-03-14T08:47:43;1.75;;;1.00;;
69981;SDS011;57319;56.274;43.980;2023-03-14T08:50:10;0.75;;;0.75;;
69981;SDS011;57319;56.274;43.980;2023-03-14T08:52:36;0.98;;;0.85;;
69981;SDS011;57319;56.274;43.980;2023-03-14T08:55:07;2.75;;;1.38;;
69981;SDS011;57319;56.274;43.980;2023-03-14T08:57:33;1.42;;;1.27;;
69981;SDS011;57319;56.274;43.980;2023-03-14T08:59:59;0.95;;;0.95;;
69981;SDS011;57319;56.274;43.980;2023-03-14T09:02:25;0.77;;;0.77;;
69981;SDS011;57319;56.274;43.980;2023-03-14T09:04:51;0.73;;;0.73;;
69981;SDS011;57319;56.274;43.980;2023-03-14T09:07:18;1.63;;;1.27;;
69981;SDS011;57319;56.274;43.980;2023-03-14T09:09:44;1.00;;;1.00;;
69981;SDS011;57319;56.274;43.980;2023-03-14T09:12:10;1.38;;;1.35;;
69981;SDS011;57319;56.274;43.980;2023-03-14T09:14:36;7.63;;;1.13;;
69981;SDS011;57319;56.274;43.980;2023-03-14T09:17:02;1.30;;;1.20;;
69981;SDS011;57319;56.274;43.980;2023-03-14T09:19:29;2.83;;;0.90;;
69981;SDS011;57319;56.274;43.980;2023-03-14T09:21:55;2.83;;;1.10;;
69981;SDS011;57319;56.274;43.980;2023-03-14T09:24:20;1.85;;;0.98;;
69981;SDS011;57319;56.274;43.980;2023-03-14T09:26:46;1.33;;;1.08;;
69981;SDS011;57319;56.274;43.980;2023-03-14T09:29:12;1.30;;;1.30;;
69981;SDS011;57319;56.274;43.980;2023-03-14T09:31:38;1.52;;;1.35;;
69981;SDS011;57319;56.274;43.980;2023-03-14T09:34:04;4.90;;;1.20;;
69981;SDS011;57319;56.274;43.980;2023-03-14T09:36:29;1.48;;;1.20;;
69981;SDS011;57319;56.274;43.980;2023-03-14T09:38:55;1.80;;;1.35;;
69981;SDS011;57319;56.274;43.980;2023-03-14T09:41:23;1.00;;;1.00;;
69981;SDS011;57319;56.274;43.980;2023-03-14T09:44:06;1.17;;;1.17;;
69981;SDS011;57319;56.274;43.980;2023-03-14T09:46:54;1.85;;;1.30;;
69981;SDS011;57319;56.274;43.980;2023-03-14T09:49:26;5.70;;;1.23;;
69981;SDS011;57319;56.274;43.980;2023-03-14T09:51:56;1.35;;;1.25;;
69981;SDS011;57319;56.274;43.980;2023-03-14T09:54:35;1.80;;;1.20;;
69981;SDS011;57319;56.274;43.980;2023-03-14T09:57:04;1.98;;;0.95;;
69981;SDS011;57319;56.274;43.980;2023-03-14T09:59:31;1.33;;;1.02;;
69981;SDS011;57319;56.274;43.980;2023-03-14T10:02:01;1.92;;;1.33;;
69981;SDS011;57319;56.274;43.980;2023-03-14T10:04:37;2.38;;;1.23;;
69981;SDS011;57319;56.274;43.980;2023-03-14T10:07:08;2.35;;;1.20;;
69981;SDS011;57319;56.274;43.980;2023-03-14T10:09:40;1.17;;;1.10;;
69981;SDS011;57319;56.274;43.980;2023-03-14T10:12:08;1.35;;;1.25;;
69981;SDS011;57319;56.274;43.980;2023-03-14T10:14:35;2.15;;;1.45;;
69981;SDS011;57319;56.274;43.980;2023-03-14T10:17:06;2.95;;;1.58;;
69981;SDS011;57319;56.274;43.980;2023-03-14T10:19:35;1.40;;;1.40;;
69981;SDS011;57319;56.274;43.980;2023-03-14T10:22:02;8.18;;;1.50;;
69981;SDS011;57319;56.274;43.980;2023-03-14T10:24:33;1.63;;;1.52;;
69981;SDS011;57319;56.274;43.980;2023-03-14T10:27:05;2.83;;;1.45;;
69981;SDS011;57319;56.274;43.980;2023-03-14T10:29:51;5.10;;;1.30;;
69981;SDS011;57319;56.274;43.980;2023-03-14T10:32:22;1.60;;;1.50;;
69981;SDS011;57319;56.274;43.980;2023-03-14T10:35:04;3.28;;;1.45;;
69981;SDS011;57319;56.274;43.980;2023-03-14T10:40:39;1.40;;;1.40;;
69981;SDS011;57319;56.274;43.980;2023-03-14T10:43:18;1.15;;;1.15;;
69981;SDS011;57319;56.274;43.980;2023-03-14T10:45:56;7.47;;;1.88;;
69981;SDS011;57319;56.274;43.980;2023-03-14T10:48:25;1.58;;;1.48;;
69981;SDS011;57319;56.274;43.980;2023-03-14T10:51:01;2.53;;;1.42;;
69981;SDS011;57319;56.274;43.980;2023-03-14T10:53:33;2.80;;;1.73;;
69981;SDS011;57319;56.274;43.980;2023-03-14T10:56:04;1.77;;;1.67;;
69981;SDS011;57319;56.274;43.980;2023-03-14T10:58:33;1.58;;;1.48;;
69981;SDS011;57319;56.274;43.980;2023-03-14T11:03:53;2.58;;;1.65;;
69981;SDS011;57319;56.274;43.980;2023-03-14T11:06:49;4.72;;;2.00;;
69981;SDS011;57319;56.274;43.980;2023-03-14T11:11:54;1.27;;;1.27;;
69981;SDS011;57319;56.274;43.980;2023-03-14T11:14:36;1.55;;;1.50;;
69981;SDS011;57319;56.274;43.980;2023-03-14T11:17:15;4.22;;;1.48;;
69981;SDS011;57319;56.274;43.980;2023-03-14T11:22:23;2.42;;;1.35;;
69981;SDS011;57319;56.274;43.980;2023-03-14T11:25:14;4.88;;;1.42;;
69981;SDS011;57319;56.274;43.980;2023-03-14T11:27:51;3.75;;;1.65;;
69981;SDS011;57319;56.274;43.980;2023-03-14T11:33:10;1.50;;;1.40;;
69981;SDS011;57319;56.274;43.980;2023-03-14T11:38:33;4.88;;;1.45;;
69981;SDS011;57319;56.274;43.980;2023-03-14T11:41:04;1.75;;;1.65;;
69981;SDS011;57319;56.274;43.980;2023-03-14T11:43:40;1.80;;;1.63;;
69981;SDS011;57319;56.274;43.980;2023-03-14T11:46:24;2.60;;;1.65;;
69981;SDS011;57319;56.274;43.980;2023-03-14T11:51:44;1.58;;;1.48;;
69981;SDS011;57319;56.274;43.980;2023-03-14T11:54:17;1.20;;;1.20;;
69981;SDS011;57319;56.274;43.980;2023-03-14T11:56:58;2.35;;;1.77;;
69981;SDS011;57319;56.274;43.980;2023-03-14T12:10:53;1.42;;;1.35;;
69981;SDS011;57319;56.274;43.980;2023-03-14T12:13:24;2.00;;;1.63;;
69981;SDS011;57319;56.274;43.980;2023-03-14T12:15:55;7.93;;;1.90;;
69981;SDS011;57319;56.274;43.980;2023-03-14T12:20:54;2.33;;;1.70;;
69981;SDS011;57319;56.274;43.980;2023-03-14T12:23:26;1.50;;;1.40;;
69981;SDS011;57319;56.274;43.980;2023-03-14T12:28:37;4.47;;;1.65;;
69981;SDS011;57319;56.274;43.980;2023-03-14T12:45:28;3.15;;;1.58;;
69981;SDS011;57319;56.274;43.980;2023-03-14T12:48:15;1.90;;;1.70;;
69981;SDS011;57319;56.274;43.980;2023-03-14T12:50:56;2.08;;;1.50;;
69981;SDS011;57319;56.274;43.980;2023-03-14T12:53:33;7.90;;;1.80;;
69981;SDS011;57319;56.274;43.980;2023-03-14T13:02:45;2.15;;;1.38;;
69981;SDS011;57319;56.274;43.980;2023-03-14T13:05:09;4.13;;;1.83;;
69981;SDS011;57319;56.274;43.980;2023-03-14T13:12:37;3.55;;;1.45;;
69981;SDS011;57319;56.274;43.980;2023-03-14T13:15:13;2.92;;;1.77;;
69981;SDS011;57319;56.274;43.980;2023-03-14T13:17:43;5.13;;;1.33;;
69981;SDS011;57319;56.274;43.980;2023-03-14T13:20:12;3.80;;;1.70;;
69981;SDS011;57319;56.274;43.980;2023-03-14T13:22:59;4.38;;;1.63;;
69981;SDS011;57319;56.274;43.980;2023-03-14T13:25:29;3.72;;;1.73;;
69981;SDS011;57319;56.274;43.980;2023-03-14T13:27:58;8.45;;;1.65;;
69981;SDS011;57319;56.274;43.980;2023-03-14T13:30:28;2.13;;;1.90;;
69981;SDS011;57319;56.274;43.980;2023-03-14T13:33:03;2.85;;;1.80;;
69981;SDS011;57319;56.274;43.980;2023-03-14T13:35:30;1.65;;;1.65;;
69981;SDS011;57319;56.274;43.980;2023-03-14T13:38:18;2.33;;;1.50;;
69981;SDS011;57319;56.274;43.980;2023-03-14T13:40:45;1.65;;;1.55;;
69981;SDS011;57319;56.274;43.980;2023-03-14T13:45:56;3.13;;;1.73;;
69981;SDS011;57319;56.274;43.980;2023-03-14T13:48:24;5.15;;;1.58;;
69981;SDS011;57319;56.274;43.980;2023-03-14T13:51:00;5.88;;;1.70;;
69981;SDS011;57319;56.274;43.980;2023-03-14T13:53:30;1.85;;;1.75;;
69981;SDS011;57319;56.274;43.980;2023-03-14T13:55:56;2.35;;;2.00;;
69981;SDS011;57319;56.274;43.980;2023-03-14T13:58:27;2.38;;;2.10;;
69981;SDS011;57319;56.274;43.980;2023-03-14T14:00:56;1.80;;;1.70;;
69981;SDS011;57319;56.274;43.980;2023-03-14T14:03:25;2.10;;;1.70;;
69981;SDS011;57319;56.274;43.980;2023-03-14T14:05:51;1.70;;;1.60;;
69981;SDS011;57319;56.274;43.980;2023-03-14T14:08:20;1.58;;;1.58;;
69981;SDS011;57319;56.274;43.980;2023-03-14T14:10:46;3.80;;;2.00;;
69981;SDS011;57319;56.274;43.980;2023-03-14T14:13:15;1.90;;;1.80;;
69981;SDS011;57319;56.274;43.980;2023-03-14T14:15:44;4.60;;;2.53;;
69981;SDS011;57319;56.274;43.980;2023-03-14T14:18:14;5.45;;;2.13;;
69981;SDS011;57319;56.274;43.980;2023-03-14T14:20:43;7.57;;;2.10;;
69981;SDS011;57319;56.274;43.980;2023-03-14T14:23:12;1.92;;;1.77;;
69981;SDS011;57319;56.274;43.980;2023-03-14T14:25:40;1.90;;;1.80;;
69981;SDS011;57319;56.274;43.980;2023-03-14T14:28:21;2.25;;;2.10;;
69981;SDS011;57319;56.274;43.980;2023-03-14T14:30:58;2.60;;;1.80;;
69981;SDS011;57319;56.274;43.980;2023-03-14T14:33:25;4.07;;;2.38;;
69981;SDS011;57319;56.274;43.980;2023-03-14T14:35:52;4.22;;;1.60;;
69981;SDS011;57319;56.274;43.980;2023-03-14T14:38:21;3.70;;;1.88;;
69981;SDS011;57319;56.274;43.980;2023-03-14T14:40:48;7.68;;;2.10;;
69981;SDS011;57319;56.274;43.980;2023-03-14T14:43:20;2.42;;;2.22;;
69981;SDS011;57319;56.274;43.980;2023-03-14T14:45:49;2.55;;;2.35;;
69981;SDS011;57319;56.274;43.980;2023-03-14T14:48:18;3.90;;;2.33;;
69981;SDS011;57319;56.274;43.980;2023-03-14T14:51:00;7.35;;;2.70;;
69981;SDS011;57319;56.274;43.980;2023-03-14T14:53:34;2.80;;;2.60;;
69981;SDS011;57319;56.274;43.980;2023-03-14T14:56:06;2.35;;;1.77;;
69981;SDS011;57319;56.274;43.980;2023-03-14T14:58:59;2.03;;;1.92;;
69981;SDS011;57319;56.274;43.980;2023-03-14T15:01:34;4.28;;;1.73;;
69981;SDS011;57319;56.274;43.980;2023-03-14T15:04:04;5.43;;;2.03;;
69981;SDS011;57319;56.274;43.980;2023-03-14T15:06:36;2.95;;;2.13;;
69981;SDS011;57319;56.274;43.980;2023-03-14T15:09:02;2.20;;;1.90;;
69981;SDS011;57319;56.274;43.980;2023-03-14T15:11:27;3.00;;;2.00;;
69981;SDS011;57319;56.274;43.980;2023-03-14T15:13:53;7.75;;;2.17;;
69981;SDS011;57319;56.274;43.980;2023-03-14T15:16:23;1.88;;;1.77;;
69981;SDS011;57319;56.274;43.980;2023-03-14T15:19:00;4.18;;;1.92;;
69981;SDS011;57319;56.274;43.980;2023-03-14T15:21:28;8.00;;;2.80;;
69981;SDS011;57319;56.274;43.980;2023-03-14T15:23:53;2.65;;;2.00;;
69981;SDS011;57319;56.274;43.980;2023-03-14T15:26:21;2.45;;;2.17;;
69981;SDS011;57319;56.274;43.980;2023-03-14T15:28:49;3.38;;;1.90;;
69981;SDS011;57319;56.274;43.980;2023-03-14T15:31:15;3.33;;;1.90;;
69981;SDS011;57319;56.274;43.980;2023-03-14T15:33:43;2.08;;;1.95;;
69981;SDS011;57319;56.274;43.980;2023-03-14T15:36:29;7.25;;;2.38;;
69981;SDS011;57319;56.274;43.980;2023-03-14T15:38:57;2.10;;;2.00;;
69981;SDS011;57319;56.274;43.980;2023-03-14T15:41:24;2.22;;;1.80;;
69981;SDS011;57319;56.274;43.980;2023-03-14T15:43:50;7.05;;;2.30;;
69981;SDS011;57319;56.274;43.980;2023-03-14T15:46:16;3.22;;;1.83;;
69981;SDS011;57319;56.274;43.980;2023-03-14T15:48:43;2.55;;;2.35;;
69981;SDS011;57319;56.274;43.980;2023-03-14T15:51:09;5.72;;;2.40;;